createdAt,value
2019-04-05T00:00:40.753Z,5.95
2019-04-05T00:01:40.737Z,5.91
2019-04-05T00:02:40.721Z,6.08
2019-04-05T00:03:40.719Z,5.98
2019-04-05T00:04:40.749Z,6.12
2019-04-05T00:05:40.694Z,6.16
2019-04-05T00:06:40.722Z,6.24
2019-04-05T00:07:40.672Z,6.27
2019-04-05T00:08:40.692Z,6.31
2019-04-05T00:09:40.643Z,6.25
2019-04-05T00:10:40.666Z,6.27
2019-04-05T00:11:40.650Z,6.08
2019-04-05T00:12:40.614Z,6.06
2019-04-05T00:13:40.605Z,6.18
2019-04-05T00:14:40.594Z,6.16
2019-04-05T00:15:40.590Z,6.12
2019-04-05T00:16:40.579Z,6.06
2019-04-05T00:17:40.563Z,6.25
2019-04-05T00:18:40.587Z,6.15
2019-04-05T00:19:40.568Z,6.27
2019-04-05T00:20:40.530Z,6.27
2019-04-05T00:21:40.520Z,6.25
2019-04-05T00:22:40.507Z,6.24
2019-04-05T00:23:40.531Z,6.24
2019-04-05T00:24:40.524Z,6.16
2019-04-05T00:25:40.475Z,6.25
2019-04-05T00:26:40.496Z,6.28
2019-04-05T00:27:40.519Z,6.31
2019-04-05T00:28:40.445Z,6.37
2019-04-05T00:29:40.424Z,6.25
2019-04-05T00:30:40.419Z,6.27
2019-04-05T00:31:40.405Z,6.21
2019-04-05T00:32:40.404Z,6.18
2019-04-05T00:33:40.405Z,6.13
2019-04-05T00:34:40.374Z,6.12
2019-04-05T00:35:40.359Z,6.11
2019-04-05T00:36:40.353Z,6.05
2019-04-05T00:37:40.342Z,6.11
2019-04-05T00:38:40.329Z,6.09
2019-04-05T00:39:40.319Z,6.13
2019-04-05T00:40:40.306Z,6.24
2019-04-05T00:41:40.294Z,6.12
2019-04-05T00:42:40.287Z,6.09
2019-04-05T00:43:40.275Z,6.08
2019-04-05T00:44:40.262Z,6.00
2019-04-05T00:45:40.254Z,6.00
2019-04-05T00:46:40.242Z,6.02
2019-04-05T00:47:40.228Z,5.93
2019-04-05T00:48:40.262Z,5.97
2019-04-05T00:49:40.213Z,5.97
2019-04-05T00:50:40.197Z,5.94
2019-04-05T00:51:40.187Z,6.06
2019-04-05T00:52:40.177Z,5.93
2019-04-05T00:53:40.178Z,6.02
2019-04-05T00:54:40.154Z,6.03
2019-04-05T00:55:40.141Z,6.08
2019-04-05T00:56:40.204Z,6.02
2019-04-05T00:57:40.122Z,5.95
2019-04-05T00:58:40.112Z,6.06
2019-04-05T00:59:40.102Z,5.97
2019-04-05T01:00:40.091Z,6.00
2019-04-05T01:01:40.077Z,6.03
2019-04-05T01:02:40.064Z,5.95
2019-04-05T01:03:40.061Z,5.97
2019-04-05T01:04:40.057Z,6.13
2019-04-05T01:05:40.039Z,6.24
2019-04-05T01:06:40.024Z,6.13
2019-04-05T01:07:40.010Z,6.24
2019-04-05T01:08:40.006Z,6.19
2019-04-05T01:09:39.990Z,6.11
2019-04-05T01:10:39.981Z,6.12
2019-04-05T01:11:39.968Z,6.13
2019-04-05T01:12:39.963Z,6.11
2019-04-05T01:13:39.947Z,6.06
2019-04-05T01:14:39.941Z,6.08
2019-04-05T01:15:41.115Z,6.05
2019-04-05T01:16:39.916Z,6.08
2019-04-05T01:17:39.902Z,6.11
2019-04-05T01:18:39.894Z,6.11
2019-04-05T01:19:39.881Z,6.24
2019-04-05T01:20:39.869Z,6.24
2019-04-05T01:21:39.864Z,6.37
2019-04-05T01:22:39.848Z,6.12
2019-04-05T01:23:39.844Z,6.09
2019-04-05T01:24:39.829Z,6.08
2019-04-05T01:25:39.818Z,6.11
2019-04-05T01:26:39.810Z,5.98
2019-04-05T01:27:39.797Z,6.05
2019-04-05T01:28:39.789Z,6.02
2019-04-05T01:29:39.772Z,6.03
2019-04-05T01:30:39.761Z,5.88
2019-04-05T01:31:39.759Z,5.90
2019-04-05T01:32:39.742Z,5.84
2019-04-05T01:33:39.729Z,5.88
2019-04-05T01:34:39.726Z,5.95
2019-04-05T01:35:39.708Z,5.93
2019-04-05T01:36:39.698Z,6.06
2019-04-05T01:37:39.684Z,5.93
2019-04-05T01:38:39.672Z,5.91
2019-04-05T01:39:39.664Z,5.88
2019-04-05T01:40:39.654Z,5.97
2019-04-05T01:41:39.640Z,5.91
2019-04-05T01:42:39.630Z,5.84
2019-04-05T01:43:39.654Z,5.84
2019-04-05T01:44:39.614Z,5.85
2019-04-05T01:45:39.596Z,5.87
2019-04-05T01:46:39.588Z,5.73
2019-04-05T01:47:39.579Z,5.72
2019-04-05T01:48:39.570Z,5.70
2019-04-05T01:49:39.555Z,5.70
2019-04-05T01:50:39.546Z,5.70
2019-04-05T01:51:39.536Z,5.65
2019-04-05T01:52:39.523Z,5.70
2019-04-05T01:53:39.512Z,5.70
2019-04-05T01:54:39.501Z,5.77
2019-04-05T01:55:39.493Z,5.70
2019-04-05T01:56:39.476Z,5.79
2019-04-05T01:57:39.470Z,5.76
2019-04-05T01:58:39.457Z,5.76
2019-04-05T01:59:39.449Z,5.73
2019-04-05T02:00:39.437Z,5.73
2019-04-05T02:01:39.427Z,5.72
2019-04-05T02:02:39.438Z,5.76
2019-04-05T02:03:39.405Z,5.70
2019-04-05T02:04:39.397Z,5.70
2019-04-05T02:05:39.387Z,5.70
2019-04-05T02:06:39.376Z,5.67
2019-04-05T02:07:39.363Z,5.73
2019-04-05T02:08:39.355Z,5.76
2019-04-05T02:09:39.337Z,5.82
2019-04-05T02:10:39.328Z,5.73
2019-04-05T02:11:39.319Z,5.80
2019-04-05T02:12:39.307Z,5.84
2019-04-05T02:13:39.294Z,5.79
2019-04-05T02:14:39.285Z,5.90
2019-04-05T02:15:39.274Z,5.98
2019-04-05T02:16:39.261Z,6.03
2019-04-05T02:17:39.251Z,5.85
2019-04-05T02:18:39.243Z,5.79
2019-04-05T02:19:39.229Z,5.85
2019-04-05T02:20:39.220Z,5.72
2019-04-05T02:21:39.206Z,5.84
2019-04-05T02:22:39.203Z,5.91
2019-04-05T02:23:39.186Z,5.85
2019-04-05T02:24:39.170Z,5.90
2019-04-05T02:25:39.166Z,5.90
2019-04-05T02:26:39.151Z,5.87
2019-04-05T02:27:39.140Z,5.85
2019-04-05T02:28:39.142Z,5.82
2019-04-05T02:29:39.123Z,5.88
2019-04-05T02:30:39.110Z,5.88
2019-04-05T02:31:39.123Z,5.79
2019-04-05T02:32:39.089Z,5.69
2019-04-05T02:33:39.076Z,5.72
2019-04-05T02:34:39.072Z,5.79
2019-04-05T02:35:39.297Z,5.69
2019-04-05T02:36:39.044Z,5.75
2019-04-05T02:37:39.040Z,5.72
2019-04-05T02:38:39.021Z,5.77
2019-04-05T02:39:39.013Z,5.82
2019-04-05T02:40:39.005Z,5.87
2019-04-05T02:41:39.020Z,5.85
2019-04-05T02:42:38.993Z,5.85
2019-04-05T02:43:38.971Z,5.95
2019-04-05T02:44:38.962Z,5.85
2019-04-05T02:45:38.953Z,5.93
2019-04-05T02:46:38.938Z,5.87
2019-04-05T02:47:38.926Z,5.85
2019-04-05T02:48:38.913Z,5.77
2019-04-05T02:49:38.907Z,5.80
2019-04-05T02:50:38.893Z,5.88
2019-04-05T02:51:38.886Z,5.84
2019-04-05T02:52:38.873Z,5.79
2019-04-05T02:53:38.858Z,5.72
2019-04-05T02:54:38.851Z,5.76
2019-04-05T02:55:38.837Z,5.75
2019-04-05T02:56:38.826Z,5.79
2019-04-05T02:57:38.814Z,5.76
2019-04-05T02:58:38.835Z,5.66
2019-04-05T02:59:38.788Z,5.57
2019-04-05T03:00:38.781Z,5.55
2019-04-05T03:01:38.767Z,5.57
2019-04-05T03:02:38.781Z,5.55
2019-04-05T03:03:38.821Z,5.61
2019-04-05T03:04:38.737Z,5.59
2019-04-05T03:05:38.745Z,5.67
2019-04-05T03:06:38.711Z,5.62
2019-04-05T03:07:38.793Z,5.70
2019-04-05T03:08:38.699Z,5.67
2019-04-05T03:09:38.683Z,5.67
2019-04-05T03:10:38.668Z,5.76
2019-04-05T03:11:38.660Z,5.73
2019-04-05T03:12:38.659Z,5.72
2019-04-05T03:13:38.649Z,5.62
2019-04-05T03:14:38.639Z,5.70
2019-04-05T03:15:38.628Z,5.70
2019-04-05T03:16:41.394Z,5.58
2019-04-05T03:17:38.599Z,5.59
2019-04-05T03:18:38.593Z,5.58
2019-04-05T03:19:38.582Z,5.59
2019-04-05T03:20:38.559Z,5.65
2019-04-05T03:21:38.550Z,5.65
2019-04-05T03:22:38.552Z,5.59
2019-04-05T03:23:38.533Z,5.67
2019-04-05T03:24:38.524Z,5.61
2019-04-05T03:25:38.506Z,5.62
2019-04-05T03:26:38.500Z,5.54
2019-04-05T03:27:38.486Z,5.61
2019-04-05T03:28:38.497Z,5.52
2019-04-05T03:29:38.463Z,5.62
2019-04-05T03:30:38.467Z,5.72
2019-04-05T03:31:38.441Z,5.72
2019-04-05T03:32:38.434Z,5.67
2019-04-05T03:33:38.417Z,5.76
2019-04-05T03:34:38.415Z,5.65
2019-04-05T03:35:38.407Z,5.57
2019-04-05T03:36:38.382Z,5.61
2019-04-05T03:37:38.380Z,5.57
2019-04-05T03:38:38.360Z,5.57
2019-04-05T03:39:38.352Z,5.61
2019-04-05T03:40:38.342Z,5.67
2019-04-05T03:41:38.330Z,5.69
2019-04-05T03:42:38.323Z,5.75
2019-04-05T03:43:38.316Z,5.73
2019-04-05T03:44:38.295Z,5.72
2019-04-05T03:45:38.287Z,5.67
2019-04-05T03:46:38.278Z,5.72
2019-04-05T03:47:38.267Z,5.75
2019-04-05T03:48:38.253Z,5.72
2019-04-05T03:49:38.242Z,5.65
2019-04-05T03:50:38.235Z,5.65
2019-04-05T03:51:38.222Z,5.67
2019-04-05T03:52:38.211Z,5.76
2019-04-05T03:53:38.253Z,5.73
2019-04-05T03:54:38.191Z,5.73
2019-04-05T03:55:38.181Z,5.70
2019-04-05T03:56:38.491Z,5.69
2019-04-05T03:57:38.155Z,5.79
2019-04-05T03:58:38.142Z,5.72
2019-04-05T03:59:38.126Z,5.75
2019-04-05T04:00:38.124Z,5.70
2019-04-05T04:01:38.119Z,5.77
2019-04-05T04:02:38.095Z,5.75
2019-04-05T04:03:38.085Z,5.80
2019-04-05T04:04:38.071Z,5.77
2019-04-05T04:05:38.065Z,5.84
2019-04-05T04:06:38.053Z,5.82
2019-04-05T04:07:38.047Z,5.79
2019-04-05T04:08:38.216Z,5.76
2019-04-05T04:09:38.049Z,5.79
2019-04-05T04:10:38.067Z,5.80
2019-04-05T04:11:37.997Z,5.85
2019-04-05T04:12:37.989Z,5.79
2019-04-05T04:13:37.983Z,5.94
2019-04-05T04:14:37.969Z,5.95
2019-04-05T04:15:37.970Z,5.91
2019-04-05T04:16:37.965Z,5.97
2019-04-05T04:17:37.934Z,6.05
2019-04-05T04:18:37.939Z,6.02
2019-04-05T04:19:37.917Z,5.97
2019-04-05T04:20:37.910Z,6.02
2019-04-05T04:21:37.885Z,6.03
2019-04-05T04:22:37.874Z,6.05
2019-04-05T04:23:37.875Z,5.94
2019-04-05T04:24:37.855Z,5.94
2019-04-05T04:25:37.843Z,6.02
2019-04-05T04:26:37.836Z,6.00
2019-04-05T04:27:37.821Z,6.06
2019-04-05T04:28:37.820Z,6.05
2019-04-05T04:29:37.802Z,6.00
2019-04-05T04:30:37.786Z,6.03
2019-04-05T04:31:37.780Z,5.97
2019-04-05T04:32:37.794Z,6.05
2019-04-05T04:33:37.753Z,6.12
2019-04-05T04:34:37.746Z,6.12
2019-04-05T04:35:37.734Z,6.28
2019-04-05T04:36:37.721Z,6.31
2019-04-05T04:37:37.710Z,6.21
2019-04-05T04:38:37.704Z,6.31
2019-04-05T04:39:37.690Z,6.13
2019-04-05T04:40:37.679Z,6.12
2019-04-05T04:41:37.674Z,5.98
2019-04-05T04:42:37.659Z,6.06
2019-04-05T04:43:37.646Z,6.08
2019-04-05T04:44:37.638Z,5.98
2019-04-05T04:45:37.630Z,6.12
2019-04-05T04:46:37.617Z,6.16
2019-04-05T04:47:37.606Z,6.13
2019-04-05T04:48:37.618Z,6.12
2019-04-05T04:49:37.584Z,6.28
2019-04-05T04:50:37.578Z,6.11
2019-04-05T04:51:37.559Z,6.16
2019-04-05T04:52:37.551Z,6.09
2019-04-05T04:53:37.537Z,6.21
2019-04-05T04:54:37.535Z,6.30
2019-04-05T04:55:37.516Z,6.24
2019-04-05T04:56:37.518Z,6.19
2019-04-05T04:57:37.497Z,6.06
2019-04-05T04:58:37.488Z,6.28
2019-04-05T04:59:37.485Z,6.28
2019-04-05T05:00:37.467Z,6.31
2019-04-05T05:01:37.452Z,6.27
2019-04-05T05:02:37.438Z,6.38
2019-04-05T05:03:37.427Z,6.24
2019-04-05T05:04:37.427Z,6.30
2019-04-05T05:05:37.410Z,6.25
2019-04-05T05:06:37.401Z,6.28
2019-04-05T05:07:37.393Z,6.11
2019-04-05T05:08:37.374Z,6.12
2019-04-05T05:09:37.379Z,6.27
2019-04-05T05:10:37.359Z,6.15
2019-04-05T05:11:37.354Z,6.09
2019-04-05T05:12:37.349Z,6.15
2019-04-05T05:13:37.356Z,6.09
2019-04-05T05:14:37.315Z,6.15
2019-04-05T05:15:37.306Z,6.16
2019-04-05T05:16:37.370Z,6.12
2019-04-05T05:17:38.636Z,6.09
2019-04-05T05:18:37.287Z,6.15
2019-04-05T05:19:37.271Z,6.15
2019-04-05T05:20:37.264Z,6.08
2019-04-05T05:21:37.391Z,6.08
2019-04-05T05:22:37.262Z,6.09
2019-04-05T05:23:37.256Z,6.02
2019-04-05T05:24:37.212Z,6.06
2019-04-05T05:25:37.207Z,6.13
2019-04-05T05:26:37.179Z,6.13
2019-04-05T05:27:37.187Z,6.25
2019-04-05T05:28:37.159Z,6.13
2019-04-05T05:29:37.149Z,6.12
2019-04-05T05:30:37.143Z,6.11
2019-04-05T05:31:37.143Z,6.15
2019-04-05T05:32:37.116Z,6.09
2019-04-05T05:33:37.109Z,6.06
2019-04-05T05:34:37.100Z,6.09
2019-04-05T05:35:37.080Z,6.09
2019-04-05T05:36:37.072Z,6.15
2019-04-05T05:37:37.066Z,6.37
2019-04-05T05:38:37.055Z,6.47
2019-04-05T05:39:37.038Z,6.73
2019-04-05T05:40:37.025Z,6.81
2019-04-05T05:41:37.017Z,6.70
2019-04-05T05:42:37.004Z,6.65
2019-04-05T05:43:37.008Z,6.67
2019-04-05T05:44:36.986Z,6.78
2019-04-05T05:45:36.978Z,7.07
2019-04-05T05:46:36.972Z,7.08
2019-04-05T05:47:36.944Z,6.93
2019-04-05T05:48:36.934Z,7.50
2019-04-05T05:49:36.928Z,7.94
2019-04-05T05:50:36.910Z,8.23
2019-04-05T05:51:36.899Z,8.55
2019-04-05T05:52:36.890Z,8.88
2019-04-05T05:53:36.875Z,8.92
2019-04-05T05:54:36.867Z,8.96
2019-04-05T05:55:36.858Z,9.08
2019-04-05T05:56:36.849Z,9.45
2019-04-05T05:57:36.836Z,9.41
2019-04-05T05:58:36.857Z,9.93
2019-04-05T05:59:36.827Z,10.43
2019-04-05T06:00:36.807Z,10.83
2019-04-05T06:01:36.794Z,10.95
2019-04-05T06:02:38.724Z,11.12
2019-04-05T06:03:36.776Z,11.13
2019-04-05T06:04:36.806Z,11.15
2019-04-05T06:05:36.750Z,10.79
2019-04-05T06:06:36.736Z,10.58
2019-04-05T06:07:36.760Z,10.26
2019-04-05T06:08:36.721Z,10.24
2019-04-05T06:09:36.703Z,9.96
2019-04-05T06:10:36.694Z,9.60
2019-04-05T06:11:36.679Z,9.57
2019-04-05T06:12:36.670Z,9.40
2019-04-05T06:13:37.057Z,9.16
2019-04-05T06:14:36.653Z,8.53
2019-04-05T06:15:37.599Z,8.26
2019-04-05T06:16:46.250Z,8.21
2019-04-05T06:17:37.613Z,8.04
2019-04-05T06:18:36.603Z,8.39
2019-04-05T06:19:36.590Z,8.19
2019-04-05T06:20:36.579Z,8.14
2019-04-05T06:21:36.580Z,8.21
2019-04-05T06:22:36.566Z,8.26
2019-04-05T06:23:36.557Z,8.26
2019-04-05T06:24:36.605Z,8.24
2019-04-05T06:25:36.543Z,8.49
2019-04-05T06:26:36.721Z,8.24
2019-04-05T06:27:36.570Z,8.10
2019-04-05T06:28:36.540Z,8.55
2019-04-05T06:29:36.485Z,8.59
2019-04-05T06:30:36.473Z,8.31
2019-04-05T06:31:36.561Z,8.19
2019-04-05T06:32:36.491Z,8.19
2019-04-05T06:33:36.479Z,8.21
2019-04-05T06:34:36.437Z,8.31
2019-04-05T06:35:36.418Z,8.26
2019-04-05T06:36:36.406Z,8.20
2019-04-05T06:37:36.425Z,8.23
2019-04-05T06:38:36.418Z,8.26
2019-04-05T06:39:36.374Z,8.34
2019-04-05T06:40:41.051Z,8.47
2019-04-05T06:41:36.573Z,8.34
2019-04-05T06:42:36.347Z,8.55
2019-04-05T06:43:36.564Z,8.72
2019-04-05T06:44:36.342Z,8.56
2019-04-05T06:45:36.501Z,8.49
2019-04-05T06:46:36.456Z,8.55
2019-04-05T06:47:36.587Z,8.56
2019-04-05T06:48:36.311Z,8.56
2019-04-05T06:49:36.541Z,8.56
2019-04-05T06:50:36.345Z,8.56
2019-04-05T06:51:36.294Z,8.47
2019-04-05T06:52:36.380Z,8.50
2019-04-05T06:53:36.226Z,8.59
2019-04-05T06:54:36.206Z,8.74
2019-04-05T06:55:36.426Z,8.57
2019-04-05T06:56:36.189Z,8.85
2019-04-05T06:57:36.182Z,8.93
2019-04-05T06:58:36.231Z,9.01
2019-04-05T06:59:36.163Z,9.22
2019-04-05T07:00:36.524Z,9.41
2019-04-05T07:01:36.173Z,9.54
2019-04-05T07:02:36.180Z,10.09
2019-04-05T07:03:36.176Z,10.31
2019-04-05T07:04:36.110Z,10.48
2019-04-05T07:05:36.157Z,10.49
2019-04-05T07:06:36.435Z,10.24
2019-04-05T07:07:36.071Z,10.05
2019-04-05T07:08:36.083Z,10.01
2019-04-05T07:09:36.040Z,9.87
2019-04-05T07:10:36.031Z,9.93
2019-04-05T07:11:36.022Z,10.12
2019-04-05T07:12:36.012Z,9.94
2019-04-05T07:13:36.000Z,10.18
2019-04-05T07:14:36.011Z,10.01
2019-04-05T07:15:36.011Z,10.12
2019-04-05T07:16:36.073Z,10.82
2019-04-05T07:17:35.959Z,11.56
2019-04-05T07:18:36.405Z,11.97
2019-04-05T07:19:35.928Z,12.30
2019-04-05T07:20:35.934Z,13.36
2019-04-05T07:21:36.053Z,12.91
2019-04-05T07:22:39.349Z,13.23
2019-04-05T07:23:35.889Z,14.30
2019-04-05T07:24:35.872Z,14.97
2019-04-05T07:25:35.867Z,15.08
2019-04-05T07:26:35.853Z,14.77
2019-04-05T07:27:35.839Z,14.08
2019-04-05T07:28:35.829Z,13.38
2019-04-05T07:29:35.818Z,12.98
2019-04-05T07:30:35.804Z,12.84
2019-04-05T07:31:35.876Z,12.40
2019-04-05T07:32:35.794Z,12.18
2019-04-05T07:33:35.771Z,12.17
2019-04-05T07:34:35.759Z,12.18
2019-04-05T07:35:35.750Z,11.80
2019-04-05T07:36:35.747Z,11.82
2019-04-05T07:37:35.731Z,11.93
2019-04-05T07:38:35.731Z,11.91
2019-04-05T07:39:35.709Z,11.93
2019-04-05T07:40:35.697Z,12.10
2019-04-05T07:41:35.682Z,11.84
2019-04-05T07:42:35.674Z,11.52
2019-04-05T07:43:35.667Z,11.61
2019-04-05T07:44:35.668Z,11.52
2019-04-05T07:45:35.637Z,11.00
2019-04-05T07:46:35.633Z,11.01
2019-04-05T07:47:35.614Z,11.00
2019-04-05T07:48:44.574Z,11.00
2019-04-05T07:49:36.609Z,10.91
2019-04-05T07:50:35.582Z,10.80
2019-04-05T07:51:35.606Z,10.91
2019-04-05T07:52:35.657Z,10.97
2019-04-05T07:53:35.592Z,11.03
2019-04-05T07:54:35.546Z,11.18
2019-04-05T07:55:35.537Z,11.08
2019-04-05T07:56:35.544Z,11.19
2019-04-05T07:57:35.509Z,11.04
2019-04-05T07:58:35.514Z,11.08
2019-04-05T07:59:35.485Z,11.12
2019-04-05T08:00:35.474Z,11.20
2019-04-05T08:01:35.478Z,11.12
2019-04-05T08:02:35.462Z,10.95
2019-04-05T08:03:35.445Z,10.80
2019-04-05T08:04:35.435Z,10.80
2019-04-05T08:05:35.413Z,11.04
2019-04-05T08:06:35.404Z,11.12
2019-04-05T08:07:35.394Z,11.27
2019-04-05T08:08:35.384Z,11.34
2019-04-05T08:09:35.371Z,11.43
2019-04-05T08:10:35.363Z,11.41
2019-04-05T08:11:35.348Z,11.43
2019-04-05T08:12:35.509Z,11.49
2019-04-05T08:13:35.326Z,11.52
2019-04-05T08:14:35.317Z,11.71
2019-04-05T08:15:35.305Z,11.46
2019-04-05T08:16:35.286Z,11.49
2019-04-05T08:17:35.277Z,11.54
2019-04-05T08:18:35.269Z,11.71
2019-04-05T08:19:35.252Z,11.69
2019-04-05T08:20:35.247Z,12.07
2019-04-05T08:21:35.235Z,12.22
2019-04-05T08:22:35.218Z,12.41
2019-04-05T08:23:35.220Z,12.48
2019-04-05T08:24:35.204Z,12.59
2019-04-05T08:25:35.191Z,12.90
2019-04-05T08:26:35.173Z,13.27
2019-04-05T08:27:35.182Z,13.35
2019-04-05T08:28:35.165Z,13.60
2019-04-05T08:29:35.143Z,13.82
2019-04-05T08:30:35.144Z,14.05
2019-04-05T08:31:35.130Z,14.05
2019-04-05T08:32:35.117Z,13.93
2019-04-05T08:33:36.512Z,13.86
2019-04-05T08:34:35.130Z,13.80
2019-04-05T08:35:35.079Z,13.82
2019-04-05T08:36:35.070Z,13.68
2019-04-05T08:37:35.051Z,13.43
2019-04-05T08:38:35.051Z,13.43
2019-04-05T08:39:35.033Z,13.67
2019-04-05T08:40:35.026Z,13.96
2019-04-05T08:41:35.055Z,14.19
2019-04-05T08:42:34.999Z,14.37
2019-04-05T08:43:34.993Z,14.49
2019-04-05T08:44:34.980Z,14.46
2019-04-05T08:45:34.969Z,14.53
2019-04-05T08:46:34.978Z,14.08
2019-04-05T08:47:34.948Z,12.87
2019-04-05T08:48:34.931Z,12.96
2019-04-05T08:49:34.923Z,13.23
2019-04-05T08:50:34.910Z,13.47
2019-04-05T08:51:34.900Z,13.46
2019-04-05T08:52:34.890Z,13.36
2019-04-05T08:53:34.897Z,13.36
2019-04-05T08:54:36.738Z,13.06
2019-04-05T08:55:34.854Z,12.93
2019-04-05T08:56:34.845Z,12.90
2019-04-05T08:57:34.838Z,12.73
2019-04-05T08:58:34.822Z,12.59
2019-04-05T08:59:34.815Z,12.73
2019-04-05T09:00:34.805Z,13.02
2019-04-05T09:01:34.795Z,13.30
2019-04-05T09:02:34.813Z,13.71
2019-04-05T09:03:34.766Z,14.03
2019-04-05T09:04:34.766Z,13.90
2019-04-05T09:05:34.745Z,14.00
2019-04-05T09:06:34.733Z,14.33
2019-04-05T09:07:34.725Z,14.82
2019-04-05T09:08:34.718Z,15.10
2019-04-05T09:09:34.703Z,15.25
2019-04-05T09:10:34.693Z,15.32
2019-04-05T09:11:34.679Z,14.89
2019-04-05T09:12:34.673Z,14.33
2019-04-05T09:13:34.664Z,14.22
2019-04-05T09:14:34.649Z,14.37
2019-04-05T09:15:34.643Z,14.48
2019-04-05T09:16:34.626Z,14.52
2019-04-05T09:17:34.614Z,14.38
2019-04-05T09:18:34.607Z,14.08
2019-04-05T09:19:34.594Z,14.18
2019-04-05T09:20:34.580Z,13.72
2019-04-05T09:21:34.572Z,13.49
2019-04-05T09:22:34.561Z,13.11
2019-04-05T09:23:34.547Z,12.91
2019-04-05T09:24:34.551Z,13.16
2019-04-05T09:25:34.527Z,13.29
2019-04-05T09:26:34.521Z,13.23
2019-04-05T09:27:34.508Z,13.42
2019-04-05T09:28:34.497Z,13.39
2019-04-05T09:29:34.489Z,13.42
2019-04-05T09:30:34.473Z,13.43
2019-04-05T09:31:34.465Z,13.43
2019-04-05T09:32:36.569Z,13.35
2019-04-05T09:33:34.442Z,12.43
2019-04-05T09:34:34.430Z,12.26
2019-04-05T09:35:34.419Z,12.73
2019-04-05T09:36:34.407Z,12.25
2019-04-05T09:37:34.400Z,12.21
2019-04-05T09:38:34.406Z,12.62
2019-04-05T09:39:35.013Z,12.93
2019-04-05T09:40:34.364Z,13.29
2019-04-05T09:41:35.017Z,13.14
2019-04-05T09:42:36.034Z,13.26
2019-04-05T09:43:34.337Z,13.39
2019-04-05T09:44:34.334Z,13.80
2019-04-05T09:45:34.309Z,13.76
2019-04-05T09:46:45.923Z,13.94
2019-04-05T09:47:35.284Z,13.72
2019-04-05T09:48:34.282Z,13.93
2019-04-05T09:49:37.132Z,14.04
2019-04-05T09:50:34.257Z,13.91
2019-04-05T09:51:34.243Z,13.20
2019-04-05T09:52:34.242Z,13.39
2019-04-05T09:53:34.223Z,14.12
2019-04-05T09:54:34.215Z,14.64
2019-04-05T09:55:34.204Z,14.95
2019-04-05T09:56:34.227Z,15.23
2019-04-05T09:57:34.246Z,15.51
2019-04-05T09:58:34.179Z,15.59
2019-04-05T09:59:34.181Z,15.45
2019-04-05T10:00:34.156Z,15.63
2019-04-05T10:01:34.148Z,15.17
2019-04-05T10:02:34.128Z,15.19
2019-04-05T10:03:34.113Z,15.10
2019-04-05T10:04:34.110Z,14.86
2019-04-05T10:05:34.115Z,14.96
2019-04-05T10:06:34.103Z,14.45
2019-04-05T10:07:34.078Z,14.69
2019-04-05T10:08:34.254Z,15.17
2019-04-05T10:09:34.098Z,15.51
2019-04-05T10:10:34.074Z,15.76
2019-04-05T10:11:34.022Z,16.34
2019-04-05T10:12:34.012Z,16.46
2019-04-05T10:13:34.042Z,15.69
2019-04-05T10:14:33.990Z,16.17
2019-04-05T10:15:33.992Z,16.77
2019-04-05T10:16:33.986Z,17.17
2019-04-05T10:17:33.983Z,16.87
2019-04-05T10:18:33.959Z,16.62
2019-04-05T10:19:33.936Z,16.82
2019-04-05T10:20:33.939Z,17.06
2019-04-05T10:21:33.920Z,17.73
2019-04-05T10:22:33.937Z,17.68
2019-04-05T10:23:33.909Z,17.88
2019-04-05T10:24:33.900Z,18.23
2019-04-05T10:25:33.871Z,17.81
2019-04-05T10:26:33.865Z,17.56
2019-04-05T10:27:33.865Z,17.46
2019-04-05T10:28:33.850Z,17.54
2019-04-05T10:29:33.833Z,17.27
2019-04-05T10:30:33.814Z,17.43
2019-04-05T10:31:33.824Z,17.19
2019-04-05T10:32:33.818Z,16.87
2019-04-05T10:33:33.787Z,17.07
2019-04-05T10:34:33.782Z,17.69
2019-04-05T10:35:33.757Z,18.39
2019-04-05T10:36:33.766Z,17.93
2019-04-05T10:37:33.773Z,17.94
2019-04-05T10:38:33.735Z,18.49
2019-04-05T10:39:33.724Z,19.05
2019-04-05T10:40:33.714Z,18.97
2019-04-05T10:41:33.694Z,19.32
2019-04-05T10:42:33.695Z,19.52
2019-04-05T10:43:33.678Z,18.71
2019-04-05T10:44:33.666Z,18.33
2019-04-05T10:45:33.668Z,18.56
2019-04-05T10:46:33.640Z,18.60
2019-04-05T10:47:33.636Z,18.30
2019-04-05T10:48:35.395Z,18.09
2019-04-05T10:49:33.616Z,18.06
2019-04-05T10:50:33.598Z,17.99
2019-04-05T10:51:33.585Z,18.03
2019-04-05T10:52:33.573Z,18.11
2019-04-05T10:53:33.570Z,17.32
2019-04-05T10:54:33.550Z,17.34
2019-04-05T10:55:33.544Z,17.20
2019-04-05T10:56:33.536Z,17.01
2019-04-05T10:57:33.558Z,16.97
2019-04-05T10:58:33.583Z,17.07
2019-04-05T10:59:33.506Z,17.20
2019-04-05T11:00:33.488Z,17.17
2019-04-05T11:01:33.478Z,17.37
2019-04-05T11:02:33.467Z,16.72
2019-04-05T11:03:33.466Z,16.76
2019-04-05T11:04:33.442Z,16.99
2019-04-05T11:05:33.435Z,17.63
2019-04-05T11:06:33.424Z,18.26
2019-04-05T11:07:35.015Z,18.91
2019-04-05T11:08:33.406Z,19.57
2019-04-05T11:09:33.394Z,19.86
2019-04-05T11:10:33.377Z,19.87
2019-04-05T11:11:33.377Z,19.68
2019-04-05T11:12:33.373Z,20.09
2019-04-05T11:13:33.435Z,19.89
2019-04-05T11:14:33.335Z,19.22
2019-04-05T11:15:33.322Z,19.79
2019-04-05T11:16:33.319Z,20.09
2019-04-05T11:17:33.314Z,20.11
2019-04-05T11:18:33.525Z,20.68
2019-04-05T11:19:36.213Z,21.05
2019-04-05T11:20:33.271Z,20.46
2019-04-05T11:21:33.288Z,20.05
2019-04-05T11:22:33.255Z,20.02
2019-04-05T11:23:33.254Z,20.34
2019-04-05T11:24:33.241Z,20.25
2019-04-05T11:25:33.229Z,19.53
2019-04-05T11:26:33.250Z,18.67
2019-04-05T11:27:33.212Z,18.28
2019-04-05T11:28:33.198Z,18.56
2019-04-05T11:29:33.359Z,18.43
2019-04-05T11:30:33.173Z,17.88
2019-04-05T11:31:33.159Z,17.25
2019-04-05T11:32:33.143Z,17.07
2019-04-05T11:33:33.173Z,17.30
2019-04-05T11:34:33.125Z,17.86
2019-04-05T11:35:33.117Z,18.26
2019-04-05T11:36:33.109Z,18.58
2019-04-05T11:37:33.153Z,18.54
2019-04-05T11:38:33.084Z,18.81
2019-04-05T11:39:33.159Z,18.82
2019-04-05T11:40:33.063Z,18.93
2019-04-05T11:41:33.049Z,18.71
2019-04-05T11:42:33.553Z,18.64
2019-04-05T11:43:33.264Z,18.51
2019-04-05T11:44:33.020Z,17.93
2019-04-05T11:45:33.011Z,17.88
2019-04-05T11:46:33.010Z,18.03
2019-04-05T11:47:32.995Z,18.18
2019-04-05T11:48:32.981Z,18.01
2019-04-05T11:49:32.969Z,17.94
2019-04-05T11:50:34.765Z,18.26
2019-04-05T11:51:32.978Z,18.63
2019-04-05T11:52:32.930Z,18.79
2019-04-05T11:53:32.932Z,19.44
2019-04-05T11:54:32.907Z,19.53
2019-04-05T11:55:32.895Z,19.78
2019-04-05T11:56:32.925Z,19.94
2019-04-05T11:57:32.907Z,19.31
2019-04-05T11:58:33.010Z,19.08
2019-04-05T11:59:32.868Z,19.42
2019-04-05T12:00:32.851Z,19.60
2019-04-05T12:01:32.853Z,19.78
2019-04-05T12:02:32.831Z,19.96
2019-04-05T12:03:32.943Z,20.04
2019-04-05T12:04:32.955Z,20.33
2019-04-05T12:05:33.261Z,20.44
2019-04-05T12:06:35.176Z,20.29
2019-04-05T12:07:32.985Z,19.84
2019-04-05T12:08:32.762Z,19.01
2019-04-05T12:09:32.816Z,18.86
2019-04-05T12:10:32.744Z,18.63
2019-04-05T12:11:33.473Z,18.12
2019-04-05T12:12:32.718Z,17.87
2019-04-05T12:13:32.747Z,17.88
2019-04-05T12:14:34.488Z,17.94
2019-04-05T12:15:33.511Z,18.02
2019-04-05T12:16:36.025Z,17.72
2019-04-05T12:17:35.051Z,17.53
2019-04-05T12:18:34.776Z,17.06
2019-04-05T12:19:33.565Z,17.01
2019-04-05T12:20:33.345Z,16.72
2019-04-05T12:21:34.852Z,16.21
2019-04-05T12:22:35.001Z,16.06
2019-04-05T12:23:33.492Z,15.72
2019-04-05T12:24:33.269Z,15.27
2019-04-05T12:25:33.764Z,14.92
2019-04-05T12:26:34.537Z,14.48
2019-04-05T12:27:32.565Z,14.27
2019-04-05T12:28:32.544Z,14.16
2019-04-05T12:29:32.551Z,14.03
2019-04-05T12:30:32.552Z,13.72
2019-04-05T12:31:32.575Z,13.47
2019-04-05T12:32:36.080Z,13.46
2019-04-05T12:33:33.533Z,13.36
2019-04-05T12:34:32.494Z,13.38
2019-04-05T12:35:32.516Z,13.30
2019-04-05T12:36:32.507Z,13.21
2019-04-05T12:37:32.461Z,13.21
2019-04-05T12:38:33.017Z,13.19
2019-04-05T12:39:32.450Z,13.11
2019-04-05T12:40:32.409Z,12.98
2019-04-05T12:41:32.404Z,12.87
2019-04-05T12:42:32.402Z,12.93
2019-04-05T12:43:32.387Z,12.71
2019-04-05T12:44:32.417Z,12.59
2019-04-05T12:45:32.363Z,12.59
2019-04-05T12:46:32.366Z,12.48
2019-04-05T12:47:33.981Z,12.41
2019-04-05T12:48:32.350Z,12.48
2019-04-05T12:49:32.317Z,12.33
2019-04-05T12:50:32.301Z,12.29
2019-04-05T12:51:32.301Z,12.29
2019-04-05T12:52:32.762Z,12.26
2019-04-05T12:53:32.266Z,12.17
2019-04-05T12:54:32.254Z,12.18
2019-04-05T12:55:32.239Z,12.17
2019-04-05T12:56:32.247Z,12.11
2019-04-05T12:57:32.268Z,12.18
2019-04-05T12:58:32.860Z,12.21
2019-04-05T12:59:32.205Z,12.26
2019-04-05T13:00:32.185Z,12.28
2019-04-05T13:01:32.628Z,12.25
2019-04-05T13:02:33.951Z,12.22
2019-04-05T13:03:32.608Z,12.25
2019-04-05T13:04:32.331Z,12.25
2019-04-05T13:05:32.191Z,12.18
2019-04-05T13:06:32.137Z,12.14